»·PEaware :: N35834 KAVX-KSNA

N35834 :: KAVX-KSNA

FLIGHT INFORMATION

Flight Status: Arrived
Operator: Privately registered:
United States
More flights under this callsign
Pilot: Andrew Fay (4171)
Aircraft: PIPER PA-31/31P NAVAJO CHIEFTAIN
(PA31)
More flights by this aircraft type
Origin: KAVX Catalina
United States
Destination: KSNA John Wayne-Orange Co
United States
More flights between these airports :: More routes between these airports
Route: SXC SLI
File this flight plan on PilotEdge
Remarks:
Altitude:
(Current/Filed)
5,000ft
Speed:
(Current/Filed)
160kts
Departed: 10-Aug-17 08:19 AM
Arrived: 10-Aug-17 08:53 AM
Distance/Time
Traveled:
32nm/0:34
Distance/Time
To Go:
Arrived

Flight Plot

Page will automatically refresh every two minutes.


Map Options




Map Legend


Flown Route
Filed Route
Departure Airport
Arrival Airport
Navaid (VOR, NDB)
Fix

Horizontal Profiles

Position Reports

Time Latitude Longitude Heading Altitude Ground
Speed
10-Aug-17 08:09 33.403518 -118.414797 139 1606ft 0kts
10-Aug-17 08:10 33.403518 -118.414797 139 1606ft 0kts
10-Aug-17 08:11 33.403517 -118.414796 139 1606ft 0kts
10-Aug-17 08:12 33.403516 -118.414795 139 1606ft 0kts
10-Aug-17 08:13 33.403515 -118.414794 139 1606ft 0kts
10-Aug-17 08:14 33.403513 -118.414793 139 1606ft 0kts
10-Aug-17 08:15 33.403634 -118.414674 12 1606ft 0kts
10-Aug-17 08:16 33.403634 -118.414674 12 1606ft 0kts
10-Aug-17 08:17 33.403893 -118.414704 346 1606ft 8kts
10-Aug-17 08:18 33.404970 -118.414943 78 1606ft 6kts
10-Aug-17 08:19 33.406849 -118.411612 17 1606ft 3kts
10-Aug-17 08:20 33.406864 -118.411608 10 1606ft 0kts
10-Aug-17 08:21 33.406865 -118.411608 10 1606ft 0kts
10-Aug-17 08:22 33.404654 -118.416419 235 1606ft 89kts
10-Aug-17 08:23 33.403558 -118.414688 11 1606ft 3kts
10-Aug-17 08:24 33.403593 -118.414688 355 1606ft 0kts
10-Aug-17 08:25 33.405849 -118.413307 53 1606ft 15kts
10-Aug-17 08:26 33.406834 -118.411666 10 1606ft 0kts
10-Aug-17 08:27 33.406890 -118.411631 41 1606ft 2kts
10-Aug-17 08:28 33.402863 -118.419439 230 1641ft 101kts
10-Aug-17 08:29 33.385172 -118.446692 232 2622ft 109kts
10-Aug-17 08:30 33.361346 -118.469363 183 4189ft 115kts
10-Aug-17 08:31 33.353960 -118.442041 59 5223ft 132kts
10-Aug-17 08:32 33.385656 -118.405396 31 5486ft 178kts
10-Aug-17 08:33 33.431222 -118.375938 30 5487ft 176kts
10-Aug-17 08:34 33.472528 -118.347890 38 5319ft 173kts
10-Aug-17 08:35 33.511011 -118.312574 39 5041ft 168kts
10-Aug-17 08:36 33.546830 -118.277275 43 5035ft 165kts
10-Aug-17 08:37 33.581044 -118.240670 42 5022ft 165kts
10-Aug-17 08:38 33.615315 -118.204090 43 5006ft 165kts
10-Aug-17 08:39 33.649714 -118.167515 43 5007ft 165kts
10-Aug-17 08:40 33.684174 -118.130845 42 4940ft 167kts
10-Aug-17 08:41 33.718829 -118.093873 42 4934ft 165kts
10-Aug-17 08:42 33.753167 -118.057395 42 4937ft 165kts
10-Aug-17 08:43 33.787615 -118.020885 42 4934ft 165kts
10-Aug-17 08:44 33.821510 -117.983424 47 4931ft 164kts
10-Aug-17 08:45 33.850210 -117.939925 54 4312ft 166kts
10-Aug-17 08:46 33.875335 -117.898448 52 3601ft 151kts
10-Aug-17 08:47 33.898518 -117.855785 61 2940ft 151kts
10-Aug-17 08:48 33.907760 -117.809984 110 2956ft 149kts
10-Aug-17 08:49 33.891542 -117.763101 112 2933ft 152kts
10-Aug-17 08:50 33.855029 -117.753549 209 2813ft 155kts
10-Aug-17 08:51 33.818688 -117.777798 208 2867ft 149kts
10-Aug-17 08:52 33.782375 -117.801148 208 2329ft 144kts
10-Aug-17 08:53 33.746402 -117.823820 208 1443ft 142kts
10-Aug-17 08:54 33.711804 -117.846041 207 791ft 142kts
10-Aug-17 08:55 33.679314 -117.866561 207 70ft 97kts
10-Aug-17 08:56 33.671859 -117.872136 278 60ft 0kts
10-Aug-17 08:57 33.672945 -117.873405 336 60ft 16kts
10-Aug-17 08:58 33.673144 -117.873390 46 60ft 0kts
10-Aug-17 08:59 33.673145 -117.873389 46 60ft 0kts
10-Aug-17 09:00 33.673147 -117.873387 46 60ft 0kts
10-Aug-17 09:01 33.673148 -117.873386 46 60ft 0kts
10-Aug-17 09:02 33.673149 -117.873384 46 60ft 0kts
10-Aug-17 09:03 33.673150 -117.873382 46 60ft 0kts
10-Aug-17 09:04 33.673152 -117.873381 46 60ft 0kts
10-Aug-17 09:05 33.673153 -117.873379 46 60ft 0kts
10-Aug-17 09:06 33.673154 -117.873378 46 60ft 0kts
10-Aug-17 09:07 33.673156 -117.873376 46 60ft 0kts
10-Aug-17 09:08 33.673157 -117.873374 46 60ft 0kts
10-Aug-17 09:09 33.673158 -117.873373 46 60ft 0kts

Navigation Log

Ident Type
1. KAVX Airport
2. SXC Navaid
3. SLI Navaid
4. KSNA Airport